• Join FlightAware (Why Join?)
  • Login
  • US Flag 
11:45PM EDT


 

Airport Tracker/Info


-or-


 

Live Flight TrackerFlight Track Log ✈ PDC2808 ✈ 05-Jul-2013 ✈ ZYMD / MDG - ZYHB / HRB

Flight Track Log - Related Links

Times and Time Zones

All times are in EDT time to prevent confusion due to time zone crossing. See the PDC2808 flight status page for this flight to view local times or setup timezone preferences in your user account.

Time Position Orientation Groundspeed Altitude Reporting Facility
EDT Latitude Longitude Course Direction KTS MPH feet Rate Location/Type
05:16AM 44.6782 129.1281 296° West  Level Estimated
05:17AM 44.6974 129.0726 296° West  Level Estimated
05:18AM 44.7166 129.0171 296° West  Level Estimated
05:19AM 44.7357 128.9615 296° West  Level Estimated
05:20AM 44.7548 128.9060 296° West  Level Estimated
05:21AM 44.7739 128.8504 296° West  Level Estimated
05:22AM 44.7930 128.7947 296° West  Level Estimated
05:23AM 44.8121 128.7390 296° West  Level Estimated
05:24AM 44.8311 128.6833 296° West  Level Estimated
05:25AM 44.8501 128.6275 296° West  Level Estimated
05:26AM 44.8690 128.5717 296° West  Level Estimated
05:27AM 44.8880 128.5159 296° West  Level Estimated
05:28AM 44.9069 128.4600 296° West  Level Estimated
05:29AM 44.9258 128.4041 296° West  Level Estimated
05:30AM 44.9446 128.3482 295° West  Level Estimated
05:31AM 44.9635 128.2922 295° West  Level Estimated
05:32AM 44.9823 128.2362 295° West  Level Estimated
05:33AM 45.0010 128.1801 295° West  Level Estimated
05:34AM 45.0198 128.1240 295° West  Level Estimated
05:35AM 45.0385 128.0679 295° West  Level Estimated
05:36AM 45.0572 128.0117 295° West  Level Estimated
05:37AM 45.0758 127.9555 295° West  Level Estimated
05:38AM 45.0945 127.8993 295° West  Level Estimated
05:39AM 45.1131 127.8430 295° West  Level Estimated
05:40AM 45.1317 127.7867 295° West  Level Estimated
05:41AM 45.1502 127.7303 295° West  Level Estimated
05:42AM 45.1687 127.6740 295° West  Level Estimated
05:43AM 45.1872 127.6175 295° West  Level Estimated
05:44AM 45.2057 127.5611 295° West  Level Estimated
05:45AM 45.2242 127.5046 295° West  Level Estimated
05:46AM 45.2426 127.4481 295° West  Level Estimated
05:47AM 45.2609 127.3915 295° West  Level Estimated
05:48AM 45.2793 127.3349 295° West  Level Estimated
05:49AM 45.2976 127.2782 295° West  Level Estimated
05:50AM 45.3159 127.2215 295° West  Level Estimated
05:51AM 45.3342 127.1648 295° West  Level Estimated
05:52AM 45.3525 127.1081 295° West  Level Estimated
05:53AM 45.3707 127.0513 295° West  Level Estimated
05:54AM 45.3889 126.9945 295° West  Level Estimated
05:55AM 45.4070 126.9376 294° West  Level Estimated
05:56AM 45.4252 126.8807 294° West  Level Estimated
05:57AM 45.4433 126.8238 294° West  Level Estimated
05:58AM 45.4613 126.7668 294° West  Level Estimated
05:59AM 45.4794 126.7098 294° West  Level Estimated
06:00AM 45.4974 126.6528 294° West  Level Estimated
06:01AM 45.5154 126.5957 294° West  Level Estimated
06:02AM 45.5334 126.5386 294° West  Level Estimated
06:03AM 45.5513 126.4814 294° West  Level Estimated
06:04AM 45.5692 126.4242 294° West  Level Estimated
06:05AM 45.5871 126.3670 294° West  Level Estimated
06:06AM 45.6049 126.3097 294° West  Level Estimated
06:07AM 45.6227 126.2524 294° West  Level Estimated
06:08AM 45.6234 126.2503 294° West  Level Estimated
06:09AM 45.6234 126.2503 335° Northwest  Level Estimated
06:10AM 45.6234 126.2503 335° Northwest  Level Estimated
06:11AM 45.6234 126.2503 335° Northwest  Level Estimated
06:12AM 45.6234 126.2503 335° Northwest  Level Estimated
06:13AM 45.6234 126.2503 335° Northwest  Level Estimated
06:14AM 45.6234 126.2503 335° Northwest  Level Estimated
06:15AM 45.6234 126.2503 335° Northwest  Level Estimated
06:16AM 45.6234 126.2503 335° Northwest  Level Estimated
06:17AM 45.6234 126.2503 335° Northwest  Level Estimated
06:18AM 45.6234 126.2503 335° Northwest  Level Estimated
06:19AM 45.6234 126.2503 335° Northwest  Level Estimated
06:20AM 45.6234 126.2503 335° Northwest  Level Estimated
06:21AM 45.6234 126.2503 335° Northwest  Level Estimated